sensor_id;sensor_type;location;lat;lon;timestamp;pressure;altitude;pressure_sealevel;temperature;humidity
54554;BME280;40450;55.848;-3.572;2023-08-24T00:00:50;99182.05;;;14.61;92.35
54554;BME280;40450;55.848;-3.572;2023-08-24T00:03:20;99181.26;;;14.53;92.46
54554;BME280;40450;55.848;-3.572;2023-08-24T00:05:51;99181.07;;;15.01;91.24
54554;BME280;40450;55.848;-3.572;2023-08-24T00:08:21;99174.49;;;15.30;90.64
54554;BME280;40450;55.848;-3.572;2023-08-24T00:10:51;99169.46;;;15.29;90.43
54554;BME280;40450;55.848;-3.572;2023-08-24T00:13:22;99168.98;;;15.47;89.94
54554;BME280;40450;55.848;-3.572;2023-08-24T00:15:53;99174.55;;;15.40;89.84
54554;BME280;40450;55.848;-3.572;2023-08-24T00:18:22;99178.58;;;15.64;88.96
54554;BME280;40450;55.848;-3.572;2023-08-24T00:20:53;99181.53;;;15.39;89.99
54554;BME280;40450;55.848;-3.572;2023-08-24T00:23:23;99183.57;;;15.78;88.71
54554;BME280;40450;55.848;-3.572;2023-08-24T00:25:53;99184.60;;;15.47;89.52
54554;BME280;40450;55.848;-3.572;2023-08-24T00:28:24;99177.71;;;15.69;88.81
54554;BME280;40450;55.848;-3.572;2023-08-24T00:30:54;99180.63;;;15.56;89.19
54554;BME280;40450;55.848;-3.572;2023-08-24T00:33:24;99185.05;;;15.27;90.01
54554;BME280;40450;55.848;-3.572;2023-08-24T00:35:59;99177.54;;;14.90;91.38
54554;BME280;40450;55.848;-3.572;2023-08-24T00:38:25;99173.24;;;15.18;90.88
54554;BME280;40450;55.848;-3.572;2023-08-24T00:40:56;99167.43;;;15.39;89.97
54554;BME280;40450;55.848;-3.572;2023-08-24T00:43:26;99163.74;;;15.46;89.56
54554;BME280;40450;55.848;-3.572;2023-08-24T00:45:59;99160.24;;;15.59;89.29
54554;BME280;40450;55.848;-3.572;2023-08-24T00:48:27;99155.58;;;15.06;91.23
54554;BME280;40450;55.848;-3.572;2023-08-24T00:51:00;99153.29;;;15.25;90.37
54554;BME280;40450;55.848;-3.572;2023-08-24T00:53:28;99151.02;;;15.52;90.16
54554;BME280;40450;55.848;-3.572;2023-08-24T00:55:58;99146.82;;;15.10;90.77
54554;BME280;40450;55.848;-3.572;2023-08-24T00:58:28;99147.28;;;15.00;91.35
54554;BME280;40450;55.848;-3.572;2023-08-24T01:00:59;99141.80;;;15.05;91.00
54554;BME280;40450;55.848;-3.572;2023-08-24T01:03:28;99144.04;;;15.00;91.12
54554;BME280;40450;55.848;-3.572;2023-08-24T01:05:59;99138.50;;;15.25;90.41
54554;BME280;40450;55.848;-3.572;2023-08-24T01:08:29;99138.58;;;15.05;90.76
54554;BME280;40450;55.848;-3.572;2023-08-24T01:11:07;99143.51;;;15.22;90.31
54554;BME280;40450;55.848;-3.572;2023-08-24T01:13:35;99143.48;;;15.80;89.28
54554;BME280;40450;55.848;-3.572;2023-08-24T01:16:04;99142.95;;;15.79;88.47
54554;BME280;40450;55.848;-3.572;2023-08-24T01:18:31;99144.03;;;14.91;90.98
54554;BME280;40450;55.848;-3.572;2023-08-24T01:21:01;99142.73;;;15.13;90.40
54554;BME280;40450;55.848;-3.572;2023-08-24T01:23:40;99144.65;;;15.46;89.46
54554;BME280;40450;55.848;-3.572;2023-08-24T01:26:06;99146.99;;;15.32;89.72
54554;BME280;40450;55.848;-3.572;2023-08-24T01:28:32;99143.61;;;15.45;89.39
54554;BME280;40450;55.848;-3.572;2023-08-24T01:31:03;99134.89;;;15.91;87.82
54554;BME280;40450;55.848;-3.572;2023-08-24T01:33:32;99138.79;;;15.30;89.66
54554;BME280;40450;55.848;-3.572;2023-08-24T01:36:03;99136.52;;;15.61;88.68
54554;BME280;40450;55.848;-3.572;2023-08-24T01:38:33;99136.71;;;16.07;88.15
54554;BME280;40450;55.848;-3.572;2023-08-24T01:41:09;99142.16;;;15.42;88.88
54554;BME280;40450;55.848;-3.572;2023-08-24T01:43:36;99140.21;;;15.26;89.63
54554;BME280;40450;55.848;-3.572;2023-08-24T01:46:05;99137.24;;;14.73;90.83
54554;BME280;40450;55.848;-3.572;2023-08-24T01:48:35;99138.72;;;15.44;89.24
54554;BME280;40450;55.848;-3.572;2023-08-24T01:51:05;99137.23;;;15.60;88.45
54554;BME280;40450;55.848;-3.572;2023-08-24T01:53:36;99130.20;;;15.65;88.05
54554;BME280;40450;55.848;-3.572;2023-08-24T01:56:08;99127.56;;;16.31;86.58
54554;BME280;40450;55.848;-3.572;2023-08-24T01:58:36;99131.04;;;15.77;86.82
54554;BME280;40450;55.848;-3.572;2023-08-24T02:01:07;99127.17;;;16.08;86.27
54554;BME280;40450;55.848;-3.572;2023-08-24T02:03:36;99123.12;;;16.49;85.68
54554;BME280;40450;55.848;-3.572;2023-08-24T02:06:07;99119.97;;;16.33;84.99
54554;BME280;40450;55.848;-3.572;2023-08-24T02:08:37;99116.02;;;16.62;84.33
54554;BME280;40450;55.848;-3.572;2023-08-24T02:11:08;99112.55;;;16.24;85.16
54554;BME280;40450;55.848;-3.572;2023-08-24T02:13:38;99110.60;;;16.47;84.61
54554;BME280;40450;55.848;-3.572;2023-08-24T02:16:08;99113.91;;;15.90;86.05
54554;BME280;40450;55.848;-3.572;2023-08-24T02:18:38;99109.06;;;16.71;84.61
54554;BME280;40450;55.848;-3.572;2023-08-24T02:21:09;99110.44;;;16.39;84.44
54554;BME280;40450;55.848;-3.572;2023-08-24T02:23:39;99111.79;;;16.06;85.45
54554;BME280;40450;55.848;-3.572;2023-08-24T02:26:09;99108.03;;;16.31;84.86
54554;BME280;40450;55.848;-3.572;2023-08-24T02:28:40;99111.52;;;16.28;84.63
54554;BME280;40450;55.848;-3.572;2023-08-24T02:31:10;99119.26;;;15.52;87.11
54554;BME280;40450;55.848;-3.572;2023-08-24T02:33:40;99117.73;;;15.48;87.49
54554;BME280;40450;55.848;-3.572;2023-08-24T02:36:11;99117.70;;;15.59;87.15
54554;BME280;40450;55.848;-3.572;2023-08-24T02:38:41;99118.73;;;15.74;86.65
54554;BME280;40450;55.848;-3.572;2023-08-24T02:41:11;99116.28;;;15.70;86.80
54554;BME280;40450;55.848;-3.572;2023-08-24T02:43:42;99111.82;;;15.94;85.84
54554;BME280;40450;55.848;-3.572;2023-08-24T02:46:12;99106.96;;;16.84;84.84
54554;BME280;40450;55.848;-3.572;2023-08-24T02:48:42;99112.18;;;16.63;83.22
54554;BME280;40450;55.848;-3.572;2023-08-24T02:51:13;99108.89;;;16.54;83.30
54554;BME280;40450;55.848;-3.572;2023-08-24T02:53:43;99104.47;;;16.68;83.37
54554;BME280;40450;55.848;-3.572;2023-08-24T02:56:13;99106.22;;;17.10;83.14
54554;BME280;40450;55.848;-3.572;2023-08-24T02:58:44;99105.22;;;17.57;80.51
54554;BME280;40450;55.848;-3.572;2023-08-24T03:01:14;99107.25;;;17.16;80.79
54554;BME280;40450;55.848;-3.572;2023-08-24T03:03:44;99112.90;;;17.29;80.26
54554;BME280;40450;55.848;-3.572;2023-08-24T03:06:15;99111.34;;;17.00;80.94
54554;BME280;40450;55.848;-3.572;2023-08-24T03:08:45;99102.29;;;17.38;80.89
54554;BME280;40450;55.848;-3.572;2023-08-24T03:11:16;99096.54;;;17.29;80.39
54554;BME280;40450;55.848;-3.572;2023-08-24T03:13:46;99093.26;;;16.62;82.07
54554;BME280;40450;55.848;-3.572;2023-08-24T03:16:16;99089.14;;;16.81;82.00
54554;BME280;40450;55.848;-3.572;2023-08-24T03:18:46;99089.67;;;16.26;83.24
54554;BME280;40450;55.848;-3.572;2023-08-24T03:21:17;99088.50;;;15.63;85.36
54554;BME280;40450;55.848;-3.572;2023-08-24T03:23:47;99095.24;;;15.32;86.98
54554;BME280;40450;55.848;-3.572;2023-08-24T03:26:19;99094.07;;;15.82;85.93
54554;BME280;40450;55.848;-3.572;2023-08-24T03:28:48;99095.22;;;16.50;85.05
54554;BME280;40450;55.848;-3.572;2023-08-24T03:31:18;99091.34;;;17.06;82.24
54554;BME280;40450;55.848;-3.572;2023-08-24T03:33:48;99089.53;;;17.27;80.60
54554;BME280;40450;55.848;-3.572;2023-08-24T03:36:19;99098.02;;;17.96;79.94
54554;BME280;40450;55.848;-3.572;2023-08-24T03:38:49;99104.75;;;14.35;88.93
54554;BME280;40450;55.848;-3.572;2023-08-24T03:41:19;99111.39;;;15.44;84.76
54554;BME280;40450;55.848;-3.572;2023-08-24T03:43:50;99110.80;;;15.83;84.30
54554;BME280;40450;55.848;-3.572;2023-08-24T03:46:20;99100.48;;;16.40;82.77
54554;BME280;40450;55.848;-3.572;2023-08-24T03:48:50;99102.91;;;16.04;82.78
54554;BME280;40450;55.848;-3.572;2023-08-24T03:51:20;99108.47;;;15.12;84.59
54554;BME280;40450;55.848;-3.572;2023-08-24T03:53:51;99103.07;;;14.90;85.15
54554;BME280;40450;55.848;-3.572;2023-08-24T03:56:21;99097.15;;;14.83;84.88
54554;BME280;40450;55.848;-3.572;2023-08-24T03:58:51;99093.30;;;15.96;81.50
54554;BME280;40450;55.848;-3.572;2023-08-24T04:01:22;99092.06;;;16.26;81.31
54554;BME280;40450;55.848;-3.572;2023-08-24T04:03:52;99090.83;;;14.70;84.60
54554;BME280;40450;55.848;-3.572;2023-08-24T04:06:22;99080.52;;;16.57;80.76
54554;BME280;40450;55.848;-3.572;2023-08-24T04:08:53;99079.81;;;16.57;81.16
54554;BME280;40450;55.848;-3.572;2023-08-24T04:11:23;99076.20;;;16.61;78.80
54554;BME280;40450;55.848;-3.572;2023-08-24T04:13:54;99070.29;;;17.52;77.66
54554;BME280;40450;55.848;-3.572;2023-08-24T04:16:24;99072.38;;;17.54;75.74
54554;BME280;40450;55.848;-3.572;2023-08-24T04:18:54;99073.94;;;18.06;75.93
54554;BME280;40450;55.848;-3.572;2023-08-24T04:21:25;99073.13;;;18.30;75.61
54554;BME280;40450;55.848;-3.572;2023-08-24T04:23:55;99076.41;;;18.44;74.71
54554;BME280;40450;55.848;-3.572;2023-08-24T04:26:25;99083.66;;;17.82;75.35
54554;BME280;40450;55.848;-3.572;2023-08-24T04:28:56;99083.56;;;18.53;73.73
54554;BME280;40450;55.848;-3.572;2023-08-24T04:31:26;99082.33;;;18.40;72.14
54554;BME280;40450;55.848;-3.572;2023-08-24T04:33:56;99085.69;;;18.52;72.37
54554;BME280;40450;55.848;-3.572;2023-08-24T04:36:26;99088.64;;;18.62;72.29
54554;BME280;40450;55.848;-3.572;2023-08-24T04:38:57;99090.37;;;18.49;71.70
54554;BME280;40450;55.848;-3.572;2023-08-24T04:41:27;99086.69;;;18.55;71.11
54554;BME280;40450;55.848;-3.572;2023-08-24T04:43:57;99088.15;;;18.68;71.51
54554;BME280;40450;55.848;-3.572;2023-08-24T04:46:28;99086.82;;;18.52;70.16
54554;BME280;40450;55.848;-3.572;2023-08-24T04:48:58;99085.03;;;18.34;71.12
54554;BME280;40450;55.848;-3.572;2023-08-24T04:51:29;99089.22;;;17.85;72.25
54554;BME280;40450;55.848;-3.572;2023-08-24T04:53:59;99088.00;;;18.04;71.67
54554;BME280;40450;55.848;-3.572;2023-08-24T04:56:29;99085.22;;;18.09;71.70
54554;BME280;40450;55.848;-3.572;2023-08-24T04:58:59;99087.35;;;17.83;72.41
54554;BME280;40450;55.848;-3.572;2023-08-24T05:01:30;99084.28;;;18.11;71.76
54554;BME280;40450;55.848;-3.572;2023-08-24T05:04:00;99087.39;;;18.23;71.04
54554;BME280;40450;55.848;-3.572;2023-08-24T05:06:30;99083.30;;;18.19;70.54
54554;BME280;40450;55.848;-3.572;2023-08-24T05:09:00;99083.83;;;17.76;72.13
54554;BME280;40450;55.848;-3.572;2023-08-24T05:11:31;99079.12;;;17.58;72.51
54554;BME280;40450;55.848;-3.572;2023-08-24T05:14:01;99076.09;;;17.46;73.21
54554;BME280;40450;55.848;-3.572;2023-08-24T05:16:31;99080.43;;;17.64;72.70
54554;BME280;40450;55.848;-3.572;2023-08-24T05:19:02;99079.75;;;18.03;72.61
54554;BME280;40450;55.848;-3.572;2023-08-24T05:21:32;99078.78;;;18.29;71.64
54554;BME280;40450;55.848;-3.572;2023-08-24T05:24:03;99081.62;;;18.22;70.55
54554;BME280;40450;55.848;-3.572;2023-08-24T05:26:33;99083.63;;;18.36;70.37
54554;BME280;40450;55.848;-3.572;2023-08-24T05:29:03;99084.98;;;18.56;70.97
54554;BME280;40450;55.848;-3.572;2023-08-24T05:31:33;99085.29;;;18.54;69.57
54554;BME280;40450;55.848;-3.572;2023-08-24T05:34:04;99084.17;;;18.67;69.16
54554;BME280;40450;55.848;-3.572;2023-08-24T05:36:34;99082.42;;;18.03;71.07
54554;BME280;40450;55.848;-3.572;2023-08-24T05:39:04;99078.96;;;18.15;69.95
54554;BME280;40450;55.848;-3.572;2023-08-24T05:41:35;99081.79;;;17.56;73.00
54554;BME280;40450;55.848;-3.572;2023-08-24T05:44:05;99084.00;;;17.16;73.87
54554;BME280;40450;55.848;-3.572;2023-08-24T05:46:36;99083.51;;;16.19;77.33
54554;BME280;40450;55.848;-3.572;2023-08-24T05:49:06;99079.90;;;16.46;75.94
54554;BME280;40450;55.848;-3.572;2023-08-24T05:51:36;99076.67;;;16.18;77.21
54554;BME280;40450;55.848;-3.572;2023-08-24T05:54:06;99078.79;;;16.80;75.52
54554;BME280;40450;55.848;-3.572;2023-08-24T05:56:37;99075.11;;;16.90;75.39
54554;BME280;40450;55.848;-3.572;2023-08-24T05:59:07;99067.89;;;16.85;75.00
54554;BME280;40450;55.848;-3.572;2023-08-24T06:01:38;99068.46;;;16.91;75.34
54554;BME280;40450;55.848;-3.572;2023-08-24T06:04:08;99066.82;;;17.08;74.97
54554;BME280;40450;55.848;-3.572;2023-08-24T06:06:38;99073.82;;;17.15;74.31
54554;BME280;40450;55.848;-3.572;2023-08-24T06:09:09;99076.26;;;16.82;74.86
54554;BME280;40450;55.848;-3.572;2023-08-24T06:11:39;99077.48;;;16.68;75.73
54554;BME280;40450;55.848;-3.572;2023-08-24T06:14:09;99077.11;;;16.64;75.84
54554;BME280;40450;55.848;-3.572;2023-08-24T06:16:40;99077.20;;;16.40;76.65
54554;BME280;40450;55.848;-3.572;2023-08-24T06:19:10;99079.38;;;15.68;79.23
54554;BME280;40450;55.848;-3.572;2023-08-24T06:21:40;99070.95;;;15.96;78.39
54554;BME280;40450;55.848;-3.572;2023-08-24T06:24:11;99074.89;;;15.73;78.37
54554;BME280;40450;55.848;-3.572;2023-08-24T06:26:50;99074.84;;;16.43;77.22
54554;BME280;40450;55.848;-3.572;2023-08-24T06:29:11;99075.41;;;17.04;75.88
54554;BME280;40450;55.848;-3.572;2023-08-24T06:31:42;99069.64;;;17.01;75.24
54554;BME280;40450;55.848;-3.572;2023-08-24T06:34:12;99065.30;;;16.64;75.89
54554;BME280;40450;55.848;-3.572;2023-08-24T06:36:42;99062.41;;;16.76;75.42
54554;BME280;40450;55.848;-3.572;2023-08-24T06:39:13;99063.95;;;17.14;74.82
54554;BME280;40450;55.848;-3.572;2023-08-24T06:41:43;99066.22;;;17.08;74.28
54554;BME280;40450;55.848;-3.572;2023-08-24T06:44:13;99065.93;;;17.27;73.37
54554;BME280;40450;55.848;-3.572;2023-08-24T06:46:44;99063.81;;;17.53;72.78
54554;BME280;40450;55.848;-3.572;2023-08-24T06:49:14;99068.42;;;17.20;73.68
54554;BME280;40450;55.848;-3.572;2023-08-24T06:51:44;99060.90;;;17.93;72.15
54554;BME280;40450;55.848;-3.572;2023-08-24T06:54:15;99061.41;;;17.81;72.02
54554;BME280;40450;55.848;-3.572;2023-08-24T06:56:45;99064.58;;;17.26;72.69
54554;BME280;40450;55.848;-3.572;2023-08-24T06:59:16;99061.75;;;17.22;73.25
54554;BME280;40450;55.848;-3.572;2023-08-24T07:01:46;99060.40;;;17.43;72.77
54554;BME280;40450;55.848;-3.572;2023-08-24T07:04:16;99062.64;;;16.87;74.13
54554;BME280;40450;55.848;-3.572;2023-08-24T07:06:46;99066.90;;;17.21;72.96
54554;BME280;40450;55.848;-3.572;2023-08-24T07:09:16;99064.29;;;17.50;72.63
54554;BME280;40450;55.848;-3.572;2023-08-24T07:11:47;99067.01;;;17.21;71.71
54554;BME280;40450;55.848;-3.572;2023-08-24T07:14:17;99067.05;;;17.06;71.66
54554;BME280;40450;55.848;-3.572;2023-08-24T07:16:47;99061.14;;;17.88;71.60
54554;BME280;40450;55.848;-3.572;2023-08-24T07:19:43;99068.21;;;17.19;72.80
54554;BME280;40450;55.848;-3.572;2023-08-24T07:21:48;99067.57;;;17.10;73.04
54554;BME280;40450;55.848;-3.572;2023-08-24T07:24:19;99066.58;;;17.58;72.29
54554;BME280;40450;55.848;-3.572;2023-08-24T07:26:50;99068.95;;;17.01;73.49
54554;BME280;40450;55.848;-3.572;2023-08-24T07:29:20;99070.03;;;17.19;73.45
54554;BME280;40450;55.848;-3.572;2023-08-24T07:31:52;99069.61;;;16.93;73.39
54554;BME280;40450;55.848;-3.572;2023-08-24T07:34:21;99071.12;;;16.59;73.49
54554;BME280;40450;55.848;-3.572;2023-08-24T07:36:52;99071.19;;;16.16;74.94
54554;BME280;40450;55.848;-3.572;2023-08-24T07:39:22;99073.31;;;15.55;77.62
54554;BME280;40450;55.848;-3.572;2023-08-24T07:41:51;99067.13;;;16.36;75.08
54554;BME280;40450;55.848;-3.572;2023-08-24T07:44:22;99068.14;;;17.04;74.66
54554;BME280;40450;55.848;-3.572;2023-08-24T07:46:52;99068.54;;;16.57;74.40
54554;BME280;40450;55.848;-3.572;2023-08-24T07:49:23;99067.07;;;17.12;73.50
54554;BME280;40450;55.848;-3.572;2023-08-24T07:51:53;99065.81;;;17.28;74.15
54554;BME280;40450;55.848;-3.572;2023-08-24T07:54:23;99063.39;;;17.59;72.87
54554;BME280;40450;55.848;-3.572;2023-08-24T07:56:53;99060.93;;;17.41;72.81
54554;BME280;40450;55.848;-3.572;2023-08-24T07:59:24;99052.76;;;17.34;71.16
54554;BME280;40450;55.848;-3.572;2023-08-24T08:01:55;99051.86;;;17.49;71.60
54554;BME280;40450;55.848;-3.572;2023-08-24T08:04:25;99048.87;;;17.42;71.74
54554;BME280;40450;55.848;-3.572;2023-08-24T08:06:55;99052.38;;;17.18;71.56
54554;BME280;40450;55.848;-3.572;2023-08-24T08:09:25;99044.74;;;16.05;73.78
54554;BME280;40450;55.848;-3.572;2023-08-24T08:11:56;99040.72;;;16.60;72.85
54554;BME280;40450;55.848;-3.572;2023-08-24T08:14:26;99040.14;;;16.48;73.27
54554;BME280;40450;55.848;-3.572;2023-08-24T08:16:56;99038.44;;;16.45;73.50
54554;BME280;40450;55.848;-3.572;2023-08-24T08:19:26;99032.34;;;17.13;71.97
54554;BME280;40450;55.848;-3.572;2023-08-24T08:21:57;99028.01;;;17.23;71.00
54554;BME280;40450;55.848;-3.572;2023-08-24T08:24:33;99031.14;;;17.16;71.53
54554;BME280;40450;55.848;-3.572;2023-08-24T08:26:58;99020.80;;;17.75;68.93
54554;BME280;40450;55.848;-3.572;2023-08-24T08:29:28;99021.85;;;17.69;70.07
54554;BME280;40450;55.848;-3.572;2023-08-24T08:31:58;99021.39;;;16.66;70.35
54554;BME280;40450;55.848;-3.572;2023-08-24T08:34:29;99018.83;;;15.77;73.43
54554;BME280;40450;55.848;-3.572;2023-08-24T08:36:59;99014.28;;;17.11;70.97
54554;BME280;40450;55.848;-3.572;2023-08-24T08:39:29;99014.44;;;16.29;73.02
54554;BME280;40450;55.848;-3.572;2023-08-24T08:42:00;99013.72;;;16.73;71.29
54554;BME280;40450;55.848;-3.572;2023-08-24T08:44:31;99009.99;;;16.53;72.63
54554;BME280;40450;55.848;-3.572;2023-08-24T08:47:00;99010.59;;;16.32;72.26
54554;BME280;40450;55.848;-3.572;2023-08-24T08:49:32;99012.58;;;16.76;71.06
54554;BME280;40450;55.848;-3.572;2023-08-24T08:52:01;99010.85;;;17.19;70.79
54554;BME280;40450;55.848;-3.572;2023-08-24T08:54:32;99010.58;;;17.10;70.99
54554;BME280;40450;55.848;-3.572;2023-08-24T08:57:12;99005.40;;;17.83;70.61
54554;BME280;40450;55.848;-3.572;2023-08-24T08:59:33;99003.49;;;17.61;68.87
54554;BME280;40450;55.848;-3.572;2023-08-24T09:02:03;99001.91;;;18.23;68.10
54554;BME280;40450;55.848;-3.572;2023-08-24T09:04:33;99008.07;;;18.49;68.02
54554;BME280;40450;55.848;-3.572;2023-08-24T09:07:04;99012.41;;;18.35;64.64
54554;BME280;40450;55.848;-3.572;2023-08-24T09:09:34;99011.74;;;18.25;65.71
54554;BME280;40450;55.848;-3.572;2023-08-24T09:12:06;99013.48;;;18.91;64.22
54554;BME280;40450;55.848;-3.572;2023-08-24T09:14:34;99011.35;;;17.43;67.61
54554;BME280;40450;55.848;-3.572;2023-08-24T09:17:05;99010.19;;;18.26;66.58
54554;BME280;40450;55.848;-3.572;2023-08-24T09:19:34;99007.89;;;18.03;65.68
54554;BME280;40450;55.848;-3.572;2023-08-24T09:22:05;99010.45;;;18.31;64.69
54554;BME280;40450;55.848;-3.572;2023-08-24T09:24:35;99003.61;;;18.54;64.28
54554;BME280;40450;55.848;-3.572;2023-08-24T09:27:15;99001.84;;;18.38;64.61
54554;BME280;40450;55.848;-3.572;2023-08-24T09:29:37;99001.44;;;18.52;63.81
54554;BME280;40450;55.848;-3.572;2023-08-24T09:32:08;98992.20;;;17.83;66.31
54554;BME280;40450;55.848;-3.572;2023-08-24T09:34:37;98993.38;;;18.78;64.42
54554;BME280;40450;55.848;-3.572;2023-08-24T09:37:13;98988.08;;;18.71;63.36
54554;BME280;40450;55.848;-3.572;2023-08-24T09:39:38;98977.55;;;18.84;62.56
54554;BME280;40450;55.848;-3.572;2023-08-24T09:42:14;98972.87;;;18.13;63.92
54554;BME280;40450;55.848;-3.572;2023-08-24T09:44:46;98968.38;;;17.60;65.46
54554;BME280;40450;55.848;-3.572;2023-08-24T09:47:10;98966.71;;;17.59;64.41
54554;BME280;40450;55.848;-3.572;2023-08-24T09:49:39;98970.65;;;17.18;65.11
54554;BME280;40450;55.848;-3.572;2023-08-24T09:52:09;98970.54;;;18.17;62.23
54554;BME280;40450;55.848;-3.572;2023-08-24T09:54:41;98970.61;;;18.68;61.64
54554;BME280;40450;55.848;-3.572;2023-08-24T09:57:10;98970.86;;;18.85;60.85
54554;BME280;40450;55.848;-3.572;2023-08-24T09:59:43;98967.84;;;18.78;60.01
54554;BME280;40450;55.848;-3.572;2023-08-24T10:02:16;98968.62;;;18.96;58.53
54554;BME280;40450;55.848;-3.572;2023-08-24T10:04:41;98967.56;;;18.84;59.56
54554;BME280;40450;55.848;-3.572;2023-08-24T10:07:12;98968.31;;;18.85;60.76
54554;BME280;40450;55.848;-3.572;2023-08-24T10:09:47;98962.65;;;19.57;59.37
54554;BME280;40450;55.848;-3.572;2023-08-24T10:12:13;98959.43;;;19.72;58.10
54554;BME280;40450;55.848;-3.572;2023-08-24T10:14:50;98958.83;;;19.97;58.52
54554;BME280;40450;55.848;-3.572;2023-08-24T10:17:14;98951.05;;;19.35;58.16
54554;BME280;40450;55.848;-3.572;2023-08-24T10:19:43;98954.78;;;20.48;55.81
54554;BME280;40450;55.848;-3.572;2023-08-24T10:22:14;98949.70;;;20.10;57.14
54554;BME280;40450;55.848;-3.572;2023-08-24T10:24:44;98947.51;;;19.59;56.02
54554;BME280;40450;55.848;-3.572;2023-08-24T10:27:14;98949.65;;;17.73;63.38
54554;BME280;40450;55.848;-3.572;2023-08-24T10:29:44;98948.66;;;16.97;66.34
54554;BME280;40450;55.848;-3.572;2023-08-24T10:32:15;98947.99;;;17.32;64.63
54554;BME280;40450;55.848;-3.572;2023-08-24T10:34:45;98949.04;;;17.10;66.01
54554;BME280;40450;55.848;-3.572;2023-08-24T10:37:15;98955.70;;;16.37;69.49
54554;BME280;40450;55.848;-3.572;2023-08-24T10:39:46;98959.64;;;13.26;81.51
54554;BME280;40450;55.848;-3.572;2023-08-24T10:42:16;98957.82;;;15.84;73.65
54554;BME280;40450;55.848;-3.572;2023-08-24T10:44:47;98955.16;;;15.37;75.21
54554;BME280;40450;55.848;-3.572;2023-08-24T10:47:19;98951.86;;;16.23;74.54
54554;BME280;40450;55.848;-3.572;2023-08-24T10:49:57;98952.68;;;16.17;73.93
54554;BME280;40450;55.848;-3.572;2023-08-24T10:52:19;98956.38;;;15.16;77.61
54554;BME280;40450;55.848;-3.572;2023-08-24T10:54:49;98962.80;;;14.25;82.32
54554;BME280;40450;55.848;-3.572;2023-08-24T10:57:19;98954.78;;;15.31;78.34
54554;BME280;40450;55.848;-3.572;2023-08-24T11:02:19;98952.65;;;16.19;74.76
54554;BME280;40450;55.848;-3.572;2023-08-24T11:07:19;98945.29;;;17.73;70.97
54554;BME280;40450;55.848;-3.572;2023-08-24T11:09:50;98941.06;;;17.74;67.36
54554;BME280;40450;55.848;-3.572;2023-08-24T11:12:20;98939.65;;;17.98;68.06
54554;BME280;40450;55.848;-3.572;2023-08-24T11:14:51;98932.38;;;17.67;68.07
54554;BME280;40450;55.848;-3.572;2023-08-24T11:17:21;98931.76;;;17.79;66.30
54554;BME280;40450;55.848;-3.572;2023-08-24T11:19:53;98933.95;;;17.56;68.30
54554;BME280;40450;55.848;-3.572;2023-08-24T11:22:21;98938.75;;;17.85;67.16
54554;BME280;40450;55.848;-3.572;2023-08-24T11:24:52;98937.71;;;17.58;66.94
54554;BME280;40450;55.848;-3.572;2023-08-24T11:27:23;98935.54;;;18.29;65.05
54554;BME280;40450;55.848;-3.572;2023-08-24T11:29:58;98933.88;;;18.66;63.46
54554;BME280;40450;55.848;-3.572;2023-08-24T11:32:23;98926.36;;;19.15;63.16
54554;BME280;40450;55.848;-3.572;2023-08-24T11:34:53;98930.65;;;18.67;61.96
54554;BME280;40450;55.848;-3.572;2023-08-24T11:37:23;98930.02;;;19.12;61.09
54554;BME280;40450;55.848;-3.572;2023-08-24T11:39:54;98924.45;;;19.04;60.90
54554;BME280;40450;55.848;-3.572;2023-08-24T11:42:24;98930.04;;;16.49;70.28
54554;BME280;40450;55.848;-3.572;2023-08-24T11:44:54;98927.00;;;18.32;64.48
54554;BME280;40450;55.848;-3.572;2023-08-24T11:47:25;98920.59;;;19.75;61.86
54554;BME280;40450;55.848;-3.572;2023-08-24T11:49:55;98911.54;;;19.35;59.45
54554;BME280;40450;55.848;-3.572;2023-08-24T11:52:25;98928.46;;;18.25;62.80
54554;BME280;40450;55.848;-3.572;2023-08-24T11:54:59;98928.23;;;18.61;62.83
54554;BME280;40450;55.848;-3.572;2023-08-24T11:57:26;98930.14;;;16.19;70.82
54554;BME280;40450;55.848;-3.572;2023-08-24T11:59:56;98934.76;;;16.78;69.55
54554;BME280;40450;55.848;-3.572;2023-08-24T12:02:26;98931.90;;;16.12;71.87
54554;BME280;40450;55.848;-3.572;2023-08-24T12:04:58;98926.90;;;17.24;69.28
54554;BME280;40450;55.848;-3.572;2023-08-24T12:07:27;98924.42;;;16.72;70.53
54554;BME280;40450;55.848;-3.572;2023-08-24T12:10:00;98921.83;;;17.50;69.52
54554;BME280;40450;55.848;-3.572;2023-08-24T12:12:29;98924.02;;;16.93;70.50
54554;BME280;40450;55.848;-3.572;2023-08-24T12:14:59;98917.75;;;15.30;74.97
54554;BME280;40450;55.848;-3.572;2023-08-24T12:17:29;98921.14;;;17.44;68.41
54554;BME280;40450;55.848;-3.572;2023-08-24T12:20:00;98923.41;;;17.85;65.28
54554;BME280;40450;55.848;-3.572;2023-08-24T12:22:29;98925.15;;;17.25;66.67
54554;BME280;40450;55.848;-3.572;2023-08-24T12:25:00;98923.97;;;17.92;65.29
54554;BME280;40450;55.848;-3.572;2023-08-24T12:27:30;98918.93;;;17.15;69.02
54554;BME280;40450;55.848;-3.572;2023-08-24T12:30:02;98918.92;;;17.25;69.37
54554;BME280;40450;55.848;-3.572;2023-08-24T12:35:01;98916.33;;;19.06;65.21
54554;BME280;40450;55.848;-3.572;2023-08-24T12:37:31;98917.22;;;17.93;66.65
54554;BME280;40450;55.848;-3.572;2023-08-24T12:40:02;98912.60;;;18.89;64.05
54554;BME280;40450;55.848;-3.572;2023-08-24T12:42:32;98915.28;;;17.70;67.73
54554;BME280;40450;55.848;-3.572;2023-08-24T12:45:04;98912.78;;;17.60;67.54
54554;BME280;40450;55.848;-3.572;2023-08-24T12:47:33;98911.51;;;16.93;68.26
54554;BME280;40450;55.848;-3.572;2023-08-24T12:50:04;98913.19;;;18.43;63.67
54554;BME280;40450;55.848;-3.572;2023-08-24T12:52:33;98901.75;;;19.44;63.49
54554;BME280;40450;55.848;-3.572;2023-08-24T12:55:04;98897.77;;;18.43;63.47
54554;BME280;40450;55.848;-3.572;2023-08-24T12:57:34;98894.41;;;18.65;62.94
54554;BME280;40450;55.848;-3.572;2023-08-24T13:00:06;98897.96;;;18.19;64.01
54554;BME280;40450;55.848;-3.572;2023-08-24T13:02:34;98884.47;;;18.88;63.55
54554;BME280;40450;55.848;-3.572;2023-08-24T13:05:06;98882.71;;;19.50;62.42
54554;BME280;40450;55.848;-3.572;2023-08-24T13:07:36;98879.36;;;20.07;59.79
54554;BME280;40450;55.848;-3.572;2023-08-24T13:10:06;98873.13;;;19.80;59.16
54554;BME280;40450;55.848;-3.572;2023-08-24T13:12:36;98872.16;;;19.36;59.96